Terminal Aerodrome Forecast
Issued by NWS Kansas City/Pleasant Hill, MO

Home | Current Version | Previous Version | Text Only | Print | Product List | Glossary On
Versions: 1 2 3 4 5 6 7 8 9 10 11 12 13 14 15 16 17
000
FTUS43 KEAX 250300 AAA
TAFMCI
TAF AMD
KMCI 250350Z 2504/2524 25012KT P6SM -SHRA BKN080
     FM250800 30015KT P6SM OVC040
     FM251300 33018G28KT P6SM VCSH OVC015
     FM251800 35015G25KT P6SM BKN030=

USA.gov is the U.S. government's official web portal to all federal, state and local government web resources and services.